sensor_id;sensor_type;location;lat;lon;timestamp;temperature;humidity
3699;DHT22;1865;50.918;7.092;2023-03-01T00:01:52;4.00;39.40
3699;DHT22;1865;50.918;7.092;2023-03-01T00:04:17;4.00;39.60
3699;DHT22;1865;50.918;7.092;2023-03-01T00:06:43;4.00;39.10
3699;DHT22;1865;50.918;7.092;2023-03-01T00:09:12;4.00;39.50
3699;DHT22;1865;50.918;7.092;2023-03-01T00:11:38;4.00;39.30
3699;DHT22;1865;50.918;7.092;2023-03-01T00:14:04;3.90;39.40
3699;DHT22;1865;50.918;7.092;2023-03-01T00:16:40;4.00;39.60
3699;DHT22;1865;50.918;7.092;2023-03-01T00:19:08;3.90;39.60
3699;DHT22;1865;50.918;7.092;2023-03-01T00:21:34;4.00;39.60
3699;DHT22;1865;50.918;7.092;2023-03-01T00:24:01;4.00;39.10
3699;DHT22;1865;50.918;7.092;2023-03-01T00:26:27;3.90;39.20
3699;DHT22;1865;50.918;7.092;2023-03-01T00:28:54;3.70;39.90
3699;DHT22;1865;50.918;7.092;2023-03-01T00:31:25;3.70;40.20
3699;DHT22;1865;50.918;7.092;2023-03-01T00:33:59;3.60;40.00
3699;DHT22;1865;50.918;7.092;2023-03-01T00:36:28;3.70;40.20
3699;DHT22;1865;50.918;7.092;2023-03-01T00:38:55;3.90;40.30
3699;DHT22;1865;50.918;7.092;2023-03-01T00:41:21;3.90;39.70
3699;DHT22;1865;50.918;7.092;2023-03-01T00:43:48;3.90;40.30
3699;DHT22;1865;50.918;7.092;2023-03-01T00:46:20;4.00;40.20
3699;DHT22;1865;50.918;7.092;2023-03-01T00:48:46;4.00;40.50
3699;DHT22;1865;50.918;7.092;2023-03-01T00:51:14;4.10;40.20
3699;DHT22;1865;50.918;7.092;2023-03-01T00:53:40;4.10;40.20
3699;DHT22;1865;50.918;7.092;2023-03-01T00:56:07;4.00;40.10
3699;DHT22;1865;50.918;7.092;2023-03-01T00:58:32;3.90;40.30
3699;DHT22;1865;50.918;7.092;2023-03-01T01:00:58;3.90;40.20
3699;DHT22;1865;50.918;7.092;2023-03-01T01:03:24;4.00;40.10
3699;DHT22;1865;50.918;7.092;2023-03-01T01:05:51;4.00;40.00
3699;DHT22;1865;50.918;7.092;2023-03-01T01:08:17;4.00;40.40
3699;DHT22;1865;50.918;7.092;2023-03-01T01:10:44;3.90;40.80
3699;DHT22;1865;50.918;7.092;2023-03-01T01:13:10;3.90;40.70
3699;DHT22;1865;50.918;7.092;2023-03-01T01:15:35;3.90;40.60
3699;DHT22;1865;50.918;7.092;2023-03-01T01:18:01;3.90;41.00
3699;DHT22;1865;50.918;7.092;2023-03-01T01:20:27;3.90;41.00
3699;DHT22;1865;50.918;7.092;2023-03-01T01:22:52;3.90;40.80
3699;DHT22;1865;50.918;7.092;2023-03-01T01:25:19;3.80;40.60
3699;DHT22;1865;50.918;7.092;2023-03-01T01:27:44;3.80;40.70
3699;DHT22;1865;50.918;7.092;2023-03-01T01:30:10;3.80;40.70
3699;DHT22;1865;50.918;7.092;2023-03-01T01:32:36;3.80;41.10
3699;DHT22;1865;50.918;7.092;2023-03-01T01:35:02;3.80;40.70
3699;DHT22;1865;50.918;7.092;2023-03-01T01:37:28;3.80;40.80
3699;DHT22;1865;50.918;7.092;2023-03-01T01:39:58;3.80;41.30
3699;DHT22;1865;50.918;7.092;2023-03-01T01:42:24;3.70;41.70
3699;DHT22;1865;50.918;7.092;2023-03-01T01:45:30;3.70;41.30
3699;DHT22;1865;50.918;7.092;2023-03-01T01:48:00;3.70;41.90
3699;DHT22;1865;50.918;7.092;2023-03-01T01:50:28;3.60;41.30
3699;DHT22;1865;50.918;7.092;2023-03-01T01:53:04;3.60;41.50
3699;DHT22;1865;50.918;7.092;2023-03-01T01:55:30;3.50;41.60
3699;DHT22;1865;50.918;7.092;2023-03-01T01:57:59;3.50;41.60
3699;DHT22;1865;50.918;7.092;2023-03-01T02:00:29;3.60;41.30
3699;DHT22;1865;50.918;7.092;2023-03-01T02:03:00;3.50;41.50
3699;DHT22;1865;50.918;7.092;2023-03-01T02:06:00;3.50;41.50
3699;DHT22;1865;50.918;7.092;2023-03-01T02:08:31;3.50;41.70
3699;DHT22;1865;50.918;7.092;2023-03-01T02:10:59;3.50;41.50
3699;DHT22;1865;50.918;7.092;2023-03-01T02:13:26;3.40;41.00
3699;DHT22;1865;50.918;7.092;2023-03-01T02:15:51;3.30;41.80
3699;DHT22;1865;50.918;7.092;2023-03-01T02:18:18;3.30;41.80
3699;DHT22;1865;50.918;7.092;2023-03-01T02:23:42;3.20;41.90
3699;DHT22;1865;50.918;7.092;2023-03-01T02:28:44;3.10;42.20
3699;DHT22;1865;50.918;7.092;2023-03-01T02:31:11;3.00;42.40
3699;DHT22;1865;50.918;7.092;2023-03-01T02:33:57;2.90;43.80
3699;DHT22;1865;50.918;7.092;2023-03-01T02:36:31;2.90;43.80
3699;DHT22;1865;50.918;7.092;2023-03-01T02:39:01;3.00;43.70
3699;DHT22;1865;50.918;7.092;2023-03-01T02:41:29;2.90;42.90
3699;DHT22;1865;50.918;7.092;2023-03-01T02:43:57;2.70;43.20
3699;DHT22;1865;50.918;7.092;2023-03-01T02:46:24;2.80;44.00
3699;DHT22;1865;50.918;7.092;2023-03-01T02:48:58;2.90;44.00
3699;DHT22;1865;50.918;7.092;2023-03-01T02:56:45;2.80;43.30
3699;DHT22;1865;50.918;7.092;2023-03-01T02:59:16;2.80;43.80
3699;DHT22;1865;50.918;7.092;2023-03-01T03:01:43;2.80;43.70
3699;DHT22;1865;50.918;7.092;2023-03-01T03:04:12;2.80;43.40
3699;DHT22;1865;50.918;7.092;2023-03-01T03:06:43;2.80;43.40
3699;DHT22;1865;50.918;7.092;2023-03-01T03:09:09;2.80;43.20
3699;DHT22;1865;50.918;7.092;2023-03-01T03:11:35;2.70;43.20
3699;DHT22;1865;50.918;7.092;2023-03-01T03:14:02;2.60;43.30
3699;DHT22;1865;50.918;7.092;2023-03-01T03:16:27;2.50;43.70
3699;DHT22;1865;50.918;7.092;2023-03-01T03:18:55;2.50;44.00
3699;DHT22;1865;50.918;7.092;2023-03-01T03:21:20;2.40;44.20
3699;DHT22;1865;50.918;7.092;2023-03-01T03:23:46;2.50;44.30
3699;DHT22;1865;50.918;7.092;2023-03-01T03:26:11;2.50;44.30
3699;DHT22;1865;50.918;7.092;2023-03-01T03:28:39;2.40;43.90
3699;DHT22;1865;50.918;7.092;2023-03-01T03:31:06;2.40;44.80
3699;DHT22;1865;50.918;7.092;2023-03-01T03:33:32;2.30;44.30
3699;DHT22;1865;50.918;7.092;2023-03-01T03:35:58;2.20;45.10
3699;DHT22;1865;50.918;7.092;2023-03-01T03:38:24;2.20;44.80
3699;DHT22;1865;50.918;7.092;2023-03-01T03:40:54;2.10;44.90
3699;DHT22;1865;50.918;7.092;2023-03-01T03:43:26;2.10;45.60
3699;DHT22;1865;50.918;7.092;2023-03-01T03:45:52;2.10;44.90
3699;DHT22;1865;50.918;7.092;2023-03-01T03:48:18;2.00;44.70
3699;DHT22;1865;50.918;7.092;2023-03-01T03:50:54;1.90;45.20
3699;DHT22;1865;50.918;7.092;2023-03-01T03:53:22;1.90;45.60
3699;DHT22;1865;50.918;7.092;2023-03-01T03:55:48;2.00;46.10
3699;DHT22;1865;50.918;7.092;2023-03-01T03:58:15;1.90;45.20
3699;DHT22;1865;50.918;7.092;2023-03-01T04:00:43;2.00;45.40
3699;DHT22;1865;50.918;7.092;2023-03-01T04:03:10;1.90;44.90
3699;DHT22;1865;50.918;7.092;2023-03-01T04:05:37;1.90;45.20
3699;DHT22;1865;50.918;7.092;2023-03-01T04:08:04;1.90;45.40
3699;DHT22;1865;50.918;7.092;2023-03-01T04:10:43;1.90;45.20
3699;DHT22;1865;50.918;7.092;2023-03-01T04:13:12;1.80;45.20
3699;DHT22;1865;50.918;7.092;2023-03-01T04:15:37;1.80;45.50
3699;DHT22;1865;50.918;7.092;2023-03-01T04:18:03;1.80;44.90
3699;DHT22;1865;50.918;7.092;2023-03-01T04:20:32;1.70;45.10
3699;DHT22;1865;50.918;7.092;2023-03-01T04:23:06;1.70;46.00
3699;DHT22;1865;50.918;7.092;2023-03-01T04:25:57;1.80;45.50
3699;DHT22;1865;50.918;7.092;2023-03-01T04:28:25;1.70;45.50
3699;DHT22;1865;50.918;7.092;2023-03-01T04:30:51;1.60;45.90
3699;DHT22;1865;50.918;7.092;2023-03-01T04:33:17;1.60;46.30
3699;DHT22;1865;50.918;7.092;2023-03-01T04:35:43;1.70;46.30
3699;DHT22;1865;50.918;7.092;2023-03-01T04:38:09;1.70;46.10
3699;DHT22;1865;50.918;7.092;2023-03-01T04:40:35;1.80;46.20
3699;DHT22;1865;50.918;7.092;2023-03-01T04:43:01;1.80;45.80
3699;DHT22;1865;50.918;7.092;2023-03-01T04:45:27;1.80;45.60
3699;DHT22;1865;50.918;7.092;2023-03-01T04:47:53;1.90;45.90
3699;DHT22;1865;50.918;7.092;2023-03-01T04:50:19;1.90;45.10
3699;DHT22;1865;50.918;7.092;2023-03-01T04:52:49;1.90;44.80
3699;DHT22;1865;50.918;7.092;2023-03-01T04:55:15;1.80;44.90
3699;DHT22;1865;50.918;7.092;2023-03-01T04:57:41;1.80;45.20
3699;DHT22;1865;50.918;7.092;2023-03-01T05:00:09;1.80;45.30
3699;DHT22;1865;50.918;7.092;2023-03-01T05:02:55;1.70;45.10
3699;DHT22;1865;50.918;7.092;2023-03-01T05:05:31;1.50;45.00
3699;DHT22;1865;50.918;7.092;2023-03-01T05:07:59;1.40;46.20
3699;DHT22;1865;50.918;7.092;2023-03-01T05:10:26;1.40;45.70
3699;DHT22;1865;50.918;7.092;2023-03-01T05:12:52;1.40;45.50
3699;DHT22;1865;50.918;7.092;2023-03-01T05:15:18;1.20;45.60
3699;DHT22;1865;50.918;7.092;2023-03-01T05:17:44;1.30;46.90
3699;DHT22;1865;50.918;7.092;2023-03-01T05:20:10;1.30;46.30
3699;DHT22;1865;50.918;7.092;2023-03-01T05:22:37;1.20;46.10
3699;DHT22;1865;50.918;7.092;2023-03-01T05:25:03;1.30;46.40
3699;DHT22;1865;50.918;7.092;2023-03-01T05:27:29;1.30;45.70
3699;DHT22;1865;50.918;7.092;2023-03-01T05:29:55;1.30;46.20
3699;DHT22;1865;50.918;7.092;2023-03-01T05:32:20;1.20;46.50
3699;DHT22;1865;50.918;7.092;2023-03-01T05:34:46;1.20;46.80
3699;DHT22;1865;50.918;7.092;2023-03-01T05:37:12;1.10;46.30
3699;DHT22;1865;50.918;7.092;2023-03-01T05:39:39;1.10;46.70
3699;DHT22;1865;50.918;7.092;2023-03-01T05:42:04;1.00;46.40
3699;DHT22;1865;50.918;7.092;2023-03-01T05:44:30;0.90;46.80
3699;DHT22;1865;50.918;7.092;2023-03-01T05:46:56;0.90;47.50
3699;DHT22;1865;50.918;7.092;2023-03-01T05:49:22;1.00;47.10
3699;DHT22;1865;50.918;7.092;2023-03-01T05:51:52;0.90;47.20
3699;DHT22;1865;50.918;7.092;2023-03-01T05:54:19;0.90;47.20
3699;DHT22;1865;50.918;7.092;2023-03-01T05:56:44;0.90;47.10
3699;DHT22;1865;50.918;7.092;2023-03-01T05:59:10;1.00;47.00
3699;DHT22;1865;50.918;7.092;2023-03-01T06:01:36;1.00;47.20
3699;DHT22;1865;50.918;7.092;2023-03-01T06:04:03;1.10;47.10
3699;DHT22;1865;50.918;7.092;2023-03-01T06:06:29;1.00;46.30
3699;DHT22;1865;50.918;7.092;2023-03-01T06:08:55;1.10;46.90
3699;DHT22;1865;50.918;7.092;2023-03-01T06:11:21;1.00;46.50
3699;DHT22;1865;50.918;7.092;2023-03-01T06:13:47;0.90;47.00
3699;DHT22;1865;50.918;7.092;2023-03-01T06:16:13;1.00;47.40
3699;DHT22;1865;50.918;7.092;2023-03-01T06:18:40;1.00;46.80
3699;DHT22;1865;50.918;7.092;2023-03-01T06:21:07;1.10;47.10
3699;DHT22;1865;50.918;7.092;2023-03-01T06:23:33;0.90;46.50
3699;DHT22;1865;50.918;7.092;2023-03-01T06:25:59;0.90;47.20
3699;DHT22;1865;50.918;7.092;2023-03-01T06:28:25;1.00;46.70
3699;DHT22;1865;50.918;7.092;2023-03-01T06:30:51;1.00;46.40
3699;DHT22;1865;50.918;7.092;2023-03-01T06:33:18;1.10;46.70
3699;DHT22;1865;50.918;7.092;2023-03-01T06:35:45;1.10;46.50
3699;DHT22;1865;50.918;7.092;2023-03-01T06:38:11;1.10;46.60
3699;DHT22;1865;50.918;7.092;2023-03-01T06:40:40;1.10;46.80
3699;DHT22;1865;50.918;7.092;2023-03-01T06:43:06;1.10;46.30
3699;DHT22;1865;50.918;7.092;2023-03-01T06:45:33;1.20;46.30
3699;DHT22;1865;50.918;7.092;2023-03-01T06:48:05;1.10;46.80
3699;DHT22;1865;50.918;7.092;2023-03-01T06:50:31;1.10;47.10
3699;DHT22;1865;50.918;7.092;2023-03-01T06:52:57;1.20;47.10
3699;DHT22;1865;50.918;7.092;2023-03-01T06:55:23;1.20;46.60
3699;DHT22;1865;50.918;7.092;2023-03-01T06:57:53;1.20;46.30
3699;DHT22;1865;50.918;7.092;2023-03-01T07:00:19;1.30;46.60
3699;DHT22;1865;50.918;7.092;2023-03-01T07:02:45;1.00;46.20
3699;DHT22;1865;50.918;7.092;2023-03-01T07:05:11;1.00;48.00
3699;DHT22;1865;50.918;7.092;2023-03-01T07:07:36;1.00;47.20
3699;DHT22;1865;50.918;7.092;2023-03-01T07:10:02;1.10;47.20
3699;DHT22;1865;50.918;7.092;2023-03-01T07:12:27;1.20;47.10
3699;DHT22;1865;50.918;7.092;2023-03-01T07:14:53;1.30;47.30
3699;DHT22;1865;50.918;7.092;2023-03-01T07:17:19;1.30;47.80
3699;DHT22;1865;50.918;7.092;2023-03-01T07:19:45;1.30;46.70
3699;DHT22;1865;50.918;7.092;2023-03-01T07:22:10;1.40;46.90
3699;DHT22;1865;50.918;7.092;2023-03-01T07:24:36;1.50;47.00
3699;DHT22;1865;50.918;7.092;2023-03-01T07:27:01;1.60;46.50
3699;DHT22;1865;50.918;7.092;2023-03-01T07:29:27;1.70;46.40
3699;DHT22;1865;50.918;7.092;2023-03-01T07:31:54;1.80;46.20
3699;DHT22;1865;50.918;7.092;2023-03-01T07:34:19;1.90;46.40
3699;DHT22;1865;50.918;7.092;2023-03-01T07:36:45;2.10;45.90
3699;DHT22;1865;50.918;7.092;2023-03-01T07:39:11;2.20;45.90
3699;DHT22;1865;50.918;7.092;2023-03-01T07:41:36;2.40;46.00
3699;DHT22;1865;50.918;7.092;2023-03-01T07:44:02;2.50;45.60
3699;DHT22;1865;50.918;7.092;2023-03-01T07:46:29;2.70;45.40
3699;DHT22;1865;50.918;7.092;2023-03-01T07:48:55;2.90;45.40
3699;DHT22;1865;50.918;7.092;2023-03-01T07:51:20;3.00;44.80
3699;DHT22;1865;50.918;7.092;2023-03-01T07:53:47;3.10;44.80
3699;DHT22;1865;50.918;7.092;2023-03-01T07:56:14;3.20;44.60
3699;DHT22;1865;50.918;7.092;2023-03-01T07:58:42;3.30;44.40
3699;DHT22;1865;50.918;7.092;2023-03-01T08:01:13;3.40;44.30
3699;DHT22;1865;50.918;7.092;2023-03-01T08:03:39;3.50;45.00
3699;DHT22;1865;50.918;7.092;2023-03-01T08:06:07;3.60;44.00
3699;DHT22;1865;50.918;7.092;2023-03-01T08:08:33;3.80;44.00
3699;DHT22;1865;50.918;7.092;2023-03-01T08:11:00;4.00;43.40
3699;DHT22;1865;50.918;7.092;2023-03-01T08:13:26;4.20;43.30
3699;DHT22;1865;50.918;7.092;2023-03-01T08:15:52;4.40;42.60
3699;DHT22;1865;50.918;7.092;2023-03-01T08:18:19;4.60;41.70
3699;DHT22;1865;50.918;7.092;2023-03-01T08:20:45;4.80;40.90
3699;DHT22;1865;50.918;7.092;2023-03-01T08:23:11;5.00;40.00
3699;DHT22;1865;50.918;7.092;2023-03-01T08:25:37;5.20;39.90
3699;DHT22;1865;50.918;7.092;2023-03-01T08:28:03;5.30;39.70
3699;DHT22;1865;50.918;7.092;2023-03-01T08:30:29;5.50;39.20
3699;DHT22;1865;50.918;7.092;2023-03-01T08:32:54;5.70;38.70
3699;DHT22;1865;50.918;7.092;2023-03-01T08:35:20;5.70;37.20
3699;DHT22;1865;50.918;7.092;2023-03-01T08:37:46;5.90;37.50
3699;DHT22;1865;50.918;7.092;2023-03-01T08:40:12;6.50;37.80
3699;DHT22;1865;50.918;7.092;2023-03-01T08:42:39;7.40;36.90
3699;DHT22;1865;50.918;7.092;2023-03-01T08:45:06;9.20;35.00
3699;DHT22;1865;50.918;7.092;2023-03-01T08:47:32;10.50;30.50
3699;DHT22;1865;50.918;7.092;2023-03-01T08:49:59;10.70;28.30
3699;DHT22;1865;50.918;7.092;2023-03-01T08:52:25;10.70;28.10
3699;DHT22;1865;50.918;7.092;2023-03-01T08:54:51;10.60;27.70
3699;DHT22;1865;50.918;7.092;2023-03-01T08:57:17;10.60;26.70
3699;DHT22;1865;50.918;7.092;2023-03-01T08:59:43;10.20;26.60
3699;DHT22;1865;50.918;7.092;2023-03-01T09:02:12;9.70;27.30
3699;DHT22;1865;50.918;7.092;2023-03-01T09:04:39;9.50;27.70
3699;DHT22;1865;50.918;7.092;2023-03-01T09:07:05;9.40;28.00
3699;DHT22;1865;50.918;7.092;2023-03-01T09:09:30;9.10;27.80
3699;DHT22;1865;50.918;7.092;2023-03-01T09:11:56;8.80;28.20
3699;DHT22;1865;50.918;7.092;2023-03-01T09:14:21;8.90;29.20
3699;DHT22;1865;50.918;7.092;2023-03-01T09:16:47;8.80;29.30
3699;DHT22;1865;50.918;7.092;2023-03-01T09:19:13;8.90;28.90
3699;DHT22;1865;50.918;7.092;2023-03-01T09:21:39;9.30;29.20
3699;DHT22;1865;50.918;7.092;2023-03-01T09:24:05;9.80;27.40
3699;DHT22;1865;50.918;7.092;2023-03-01T09:26:30;9.90;27.60
3699;DHT22;1865;50.918;7.092;2023-03-01T09:28:56;10.00;27.20
3699;DHT22;1865;50.918;7.092;2023-03-01T09:31:23;9.90;27.50
3699;DHT22;1865;50.918;7.092;2023-03-01T09:33:51;10.50;27.00
3699;DHT22;1865;50.918;7.092;2023-03-01T09:36:20;11.50;25.80
3699;DHT22;1865;50.918;7.092;2023-03-01T09:38:46;12.00;24.40
3699;DHT22;1865;50.918;7.092;2023-03-01T09:43:47;10.50;25.70
3699;DHT22;1865;50.918;7.092;2023-03-01T09:46:20;10.30;25.60
3699;DHT22;1865;50.918;7.092;2023-03-01T09:49:01;10.30;26.50
3699;DHT22;1865;50.918;7.092;2023-03-01T09:51:34;9.70;26.50
3699;DHT22;1865;50.918;7.092;2023-03-01T09:54:02;9.40;28.20
3699;DHT22;1865;50.918;7.092;2023-03-01T09:56:33;9.50;27.40
3699;DHT22;1865;50.918;7.092;2023-03-01T09:59:13;9.40;28.10
3699;DHT22;1865;50.918;7.092;2023-03-01T10:09:41;10.20;27.70
3699;DHT22;1865;50.918;7.092;2023-03-01T10:12:11;10.40;26.40
3699;DHT22;1865;50.918;7.092;2023-03-01T10:15:16;10.30;27.00
3699;DHT22;1865;50.918;7.092;2023-03-01T10:17:59;10.40;26.60
3699;DHT22;1865;50.918;7.092;2023-03-01T10:20:33;10.10;26.40
3699;DHT22;1865;50.918;7.092;2023-03-01T10:22:59;9.70;27.10
3699;DHT22;1865;50.918;7.092;2023-03-01T10:25:43;9.50;27.30
3699;DHT22;1865;50.918;7.092;2023-03-01T10:28:22;9.40;27.20
3699;DHT22;1865;50.918;7.092;2023-03-01T10:30:50;9.60;27.80
3699;DHT22;1865;50.918;7.092;2023-03-01T10:33:23;9.90;27.30
3699;DHT22;1865;50.918;7.092;2023-03-01T10:35:50;9.70;27.30
3699;DHT22;1865;50.918;7.092;2023-03-01T10:38:18;9.50;27.00
3699;DHT22;1865;50.918;7.092;2023-03-01T10:41:00;9.40;27.10
3699;DHT22;1865;50.918;7.092;2023-03-01T10:43:48;9.50;27.20
3699;DHT22;1865;50.918;7.092;2023-03-01T10:49:20;9.90;27.30
3699;DHT22;1865;50.918;7.092;2023-03-01T10:51:49;10.10;26.30
3699;DHT22;1865;50.918;7.092;2023-03-01T10:54:29;10.10;26.80
3699;DHT22;1865;50.918;7.092;2023-03-01T10:56:57;10.30;26.50
3699;DHT22;1865;50.918;7.092;2023-03-01T10:59:27;10.50;26.30
3699;DHT22;1865;50.918;7.092;2023-03-01T11:02:23;10.60;25.70
3699;DHT22;1865;50.918;7.092;2023-03-01T11:05:03;10.60;25.70
3699;DHT22;1865;50.918;7.092;2023-03-01T11:07:55;11.10;25.90
3699;DHT22;1865;50.918;7.092;2023-03-01T11:10:36;11.40;24.90
3699;DHT22;1865;50.918;7.092;2023-03-01T11:13:18;11.50;24.50
3699;DHT22;1865;50.918;7.092;2023-03-01T11:16:10;11.40;24.50
3699;DHT22;1865;50.918;7.092;2023-03-01T11:18:36;11.20;24.30
3699;DHT22;1865;50.918;7.092;2023-03-01T11:21:03;11.10;24.80
3699;DHT22;1865;50.918;7.092;2023-03-01T11:23:30;11.40;24.60
3699;DHT22;1865;50.918;7.092;2023-03-01T11:26:00;12.00;24.00
3699;DHT22;1865;50.918;7.092;2023-03-01T11:28:28;12.60;22.90
3699;DHT22;1865;50.918;7.092;2023-03-01T11:31:06;12.80;22.60
3699;DHT22;1865;50.918;7.092;2023-03-01T11:36:48;13.10;22.80
3699;DHT22;1865;50.918;7.092;2023-03-01T11:39:37;14.30;21.10
3699;DHT22;1865;50.918;7.092;2023-03-01T11:42:15;15.20;19.10
3699;DHT22;1865;50.918;7.092;2023-03-01T11:44:43;15.40;18.70
3699;DHT22;1865;50.918;7.092;2023-03-01T11:47:26;16.00;18.80
3699;DHT22;1865;50.918;7.092;2023-03-01T11:52:53;17.20;17.70
3699;DHT22;1865;50.918;7.092;2023-03-01T12:11:29;16.40;17.40
3699;DHT22;1865;50.918;7.092;2023-03-01T12:17:01;16.30;18.70
3699;DHT22;1865;50.918;7.092;2023-03-01T12:22:35;16.90;17.20
3699;DHT22;1865;50.918;7.092;2023-03-01T12:27:38;17.10;17.40
3699;DHT22;1865;50.918;7.092;2023-03-01T12:30:24;16.70;16.50
3699;DHT22;1865;50.918;7.092;2023-03-01T12:33:28;16.50;17.10
3699;DHT22;1865;50.918;7.092;2023-03-01T12:36:30;16.80;17.40
3699;DHT22;1865;50.918;7.092;2023-03-01T12:41:47;16.00;17.70
3699;DHT22;1865;50.918;7.092;2023-03-01T12:45:02;16.00;18.00
3699;DHT22;1865;50.918;7.092;2023-03-01T12:50:21;17.20;17.00
3699;DHT22;1865;50.918;7.092;2023-03-01T12:52:56;17.70;16.70
3699;DHT22;1865;50.918;7.092;2023-03-01T12:55:29;18.40;16.70
3699;DHT22;1865;50.918;7.092;2023-03-01T12:58:11;19.00;16.30
3699;DHT22;1865;50.918;7.092;2023-03-01T13:00:45;19.20;15.30
3699;DHT22;1865;50.918;7.092;2023-03-01T13:06:15;18.70;15.60
3699;DHT22;1865;50.918;7.092;2023-03-01T13:11:33;19.50;14.70
3699;DHT22;1865;50.918;7.092;2023-03-01T13:16:52;20.20;14.40
3699;DHT22;1865;50.918;7.092;2023-03-01T13:19:26;20.40;14.60
3699;DHT22;1865;50.918;7.092;2023-03-01T13:21:55;20.60;14.40
3699;DHT22;1865;50.918;7.092;2023-03-01T13:24:37;20.60;14.60
3699;DHT22;1865;50.918;7.092;2023-03-01T13:37:43;20.40;14.50
3699;DHT22;1865;50.918;7.092;2023-03-01T13:42:44;20.40;14.80
3699;DHT22;1865;50.918;7.092;2023-03-01T13:45:32;20.00;15.10
3699;DHT22;1865;50.918;7.092;2023-03-01T13:48:04;19.60;15.50
3699;DHT22;1865;50.918;7.092;2023-03-01T13:50:38;20.00;15.80
3699;DHT22;1865;50.918;7.092;2023-03-01T13:53:17;19.70;15.40
3699;DHT22;1865;50.918;7.092;2023-03-01T13:55:52;20.10;15.70
3699;DHT22;1865;50.918;7.092;2023-03-01T13:58:31;20.60;15.50
3699;DHT22;1865;50.918;7.092;2023-03-01T14:03:25;20.30;15.40
3699;DHT22;1865;50.918;7.092;2023-03-01T14:06:09;19.50;15.30
3699;DHT22;1865;50.918;7.092;2023-03-01T14:08:37;18.30;16.60
3699;DHT22;1865;50.918;7.092;2023-03-01T14:11:29;17.70;16.60
3699;DHT22;1865;50.918;7.092;2023-03-01T14:19:34;16.90;17.70
3699;DHT22;1865;50.918;7.092;2023-03-01T14:22:25;16.50;17.90
3699;DHT22;1865;50.918;7.092;2023-03-01T14:25:06;16.00;18.00
3699;DHT22;1865;50.918;7.092;2023-03-01T14:27:42;15.90;18.50
3699;DHT22;1865;50.918;7.092;2023-03-01T14:32:41;16.00;18.70
3699;DHT22;1865;50.918;7.092;2023-03-01T14:35:27;15.80;18.10
3699;DHT22;1865;50.918;7.092;2023-03-01T14:37:53;15.80;18.30
3699;DHT22;1865;50.918;7.092;2023-03-01T14:40:23;15.30;17.90
3699;DHT22;1865;50.918;7.092;2023-03-01T14:42:49;15.20;18.00
3699;DHT22;1865;50.918;7.092;2023-03-01T14:45:16;15.10;19.10
3699;DHT22;1865;50.918;7.092;2023-03-01T14:47:44;15.20;19.60
3699;DHT22;1865;50.918;7.092;2023-03-01T14:50:30;15.20;20.10
3699;DHT22;1865;50.918;7.092;2023-03-01T14:53:02;15.20;20.60
3699;DHT22;1865;50.918;7.092;2023-03-01T14:55:41;14.90;21.40
3699;DHT22;1865;50.918;7.092;2023-03-01T14:58:12;14.70;21.60
3699;DHT22;1865;50.918;7.092;2023-03-01T15:00:39;14.60;22.50
3699;DHT22;1865;50.918;7.092;2023-03-01T15:03:12;14.70;23.00
3699;DHT22;1865;50.918;7.092;2023-03-01T15:05:40;14.80;22.80
3699;DHT22;1865;50.918;7.092;2023-03-01T15:08:06;14.90;22.60
3699;DHT22;1865;50.918;7.092;2023-03-01T15:10:34;14.90;22.30
3699;DHT22;1865;50.918;7.092;2023-03-01T15:13:14;14.70;22.20
3699;DHT22;1865;50.918;7.092;2023-03-01T15:15:46;14.70;23.10
3699;DHT22;1865;50.918;7.092;2023-03-01T15:18:17;14.70;22.50
3699;DHT22;1865;50.918;7.092;2023-03-01T15:20:45;14.40;23.00
3699;DHT22;1865;50.918;7.092;2023-03-01T15:23:24;14.30;24.00
3699;DHT22;1865;50.918;7.092;2023-03-01T15:25:52;14.20;23.40
3699;DHT22;1865;50.918;7.092;2023-03-01T15:28:37;14.20;23.00
3699;DHT22;1865;50.918;7.092;2023-03-01T15:31:23;14.00;23.60
3699;DHT22;1865;50.918;7.092;2023-03-01T15:33:49;13.80;23.60
3699;DHT22;1865;50.918;7.092;2023-03-01T15:36:38;13.50;23.80
3699;DHT22;1865;50.918;7.092;2023-03-01T15:39:05;13.40;24.60
3699;DHT22;1865;50.918;7.092;2023-03-01T15:41:48;13.50;24.50
3699;DHT22;1865;50.918;7.092;2023-03-01T15:44:25;13.40;24.70
3699;DHT22;1865;50.918;7.092;2023-03-01T15:46:51;13.30;24.30
3699;DHT22;1865;50.918;7.092;2023-03-01T15:49:42;13.20;24.30
3699;DHT22;1865;50.918;7.092;2023-03-01T15:52:13;13.10;24.30
3699;DHT22;1865;50.918;7.092;2023-03-01T15:54:43;13.10;24.70
3699;DHT22;1865;50.918;7.092;2023-03-01T15:57:12;13.20;24.10
3699;DHT22;1865;50.918;7.092;2023-03-01T15:59:38;13.10;24.70
3699;DHT22;1865;50.918;7.092;2023-03-01T16:02:11;13.00;23.60
3699;DHT22;1865;50.918;7.092;2023-03-01T16:04:38;13.10;23.80
3699;DHT22;1865;50.918;7.092;2023-03-01T16:07:04;13.10;24.10
3699;DHT22;1865;50.918;7.092;2023-03-01T16:09:30;13.20;24.40
3699;DHT22;1865;50.918;7.092;2023-03-01T16:11:56;13.10;23.70
3699;DHT22;1865;50.918;7.092;2023-03-01T16:14:21;13.20;23.60
3699;DHT22;1865;50.918;7.092;2023-03-01T16:16:47;13.20;23.50
3699;DHT22;1865;50.918;7.092;2023-03-01T16:19:14;13.00;23.60
3699;DHT22;1865;50.918;7.092;2023-03-01T16:21:40;13.00;23.20
3699;DHT22;1865;50.918;7.092;2023-03-01T16:24:07;13.10;23.40
3699;DHT22;1865;50.918;7.092;2023-03-01T16:26:33;13.20;23.60
3699;DHT22;1865;50.918;7.092;2023-03-01T16:28:58;13.10;23.00
3699;DHT22;1865;50.918;7.092;2023-03-01T16:31:24;13.00;22.90
3699;DHT22;1865;50.918;7.092;2023-03-01T16:33:56;12.90;23.10
3699;DHT22;1865;50.918;7.092;2023-03-01T16:36:24;12.90;23.80
3699;DHT22;1865;50.918;7.092;2023-03-01T16:38:51;12.80;23.90
3699;DHT22;1865;50.918;7.092;2023-03-01T16:41:18;12.80;24.00
3699;DHT22;1865;50.918;7.092;2023-03-01T16:43:44;12.70;24.00
3699;DHT22;1865;50.918;7.092;2023-03-01T16:46:14;12.60;24.70
3699;DHT22;1865;50.918;7.092;2023-03-01T16:48:40;12.50;24.40
3699;DHT22;1865;50.918;7.092;2023-03-01T16:51:06;12.40;24.80
3699;DHT22;1865;50.918;7.092;2023-03-01T16:53:33;12.30;24.60
3699;DHT22;1865;50.918;7.092;2023-03-01T16:56:01;12.20;25.80
3699;DHT22;1865;50.918;7.092;2023-03-01T16:58:27;12.20;25.10
3699;DHT22;1865;50.918;7.092;2023-03-01T17:00:53;12.00;25.70
3699;DHT22;1865;50.918;7.092;2023-03-01T17:03:23;12.00;25.40
3699;DHT22;1865;50.918;7.092;2023-03-01T17:05:50;11.80;25.80
3699;DHT22;1865;50.918;7.092;2023-03-01T17:08:15;11.70;26.20
3699;DHT22;1865;50.918;7.092;2023-03-01T17:10:41;11.70;26.40
3699;DHT22;1865;50.918;7.092;2023-03-01T17:13:08;11.70;26.30
3699;DHT22;1865;50.918;7.092;2023-03-01T17:15:35;11.70;26.60
3699;DHT22;1865;50.918;7.092;2023-03-01T17:18:00;11.60;26.80
3699;DHT22;1865;50.918;7.092;2023-03-01T17:20:26;11.60;26.70
3699;DHT22;1865;50.918;7.092;2023-03-01T17:22:52;11.50;27.10
3699;DHT22;1865;50.918;7.092;2023-03-01T17:25:17;11.40;26.80
3699;DHT22;1865;50.918;7.092;2023-03-01T17:27:43;11.30;27.50
3699;DHT22;1865;50.918;7.092;2023-03-01T17:30:10;11.30;27.10
3699;DHT22;1865;50.918;7.092;2023-03-01T17:32:36;11.20;27.20
3699;DHT22;1865;50.918;7.092;2023-03-01T17:35:02;11.20;27.90
3699;DHT22;1865;50.918;7.092;2023-03-01T17:37:27;11.10;27.30
3699;DHT22;1865;50.918;7.092;2023-03-01T17:39:53;11.00;26.90
3699;DHT22;1865;50.918;7.092;2023-03-01T17:42:18;11.00;27.40
3699;DHT22;1865;50.918;7.092;2023-03-01T17:44:44;10.90;27.90
3699;DHT22;1865;50.918;7.092;2023-03-01T17:47:10;10.90;27.90
3699;DHT22;1865;50.918;7.092;2023-03-01T17:49:35;10.80;28.70
3699;DHT22;1865;50.918;7.092;2023-03-01T17:52:01;10.80;28.00
3699;DHT22;1865;50.918;7.092;2023-03-01T17:54:27;10.80;27.80
3699;DHT22;1865;50.918;7.092;2023-03-01T17:56:53;10.70;28.90
3699;DHT22;1865;50.918;7.092;2023-03-01T17:59:20;10.60;27.90
3699;DHT22;1865;50.918;7.092;2023-03-01T18:01:46;10.50;28.30